sensor_id;sensor_type;location;lat;lon;timestamp;temperature;humidity
57444;DHT22;43289;52.962;6.196;2023-02-15T01:27:41;2.00;99.90
57444;DHT22;43289;52.962;6.196;2023-02-15T01:30:07;-0.30;99.90
57444;DHT22;43289;52.962;6.196;2023-02-15T01:32:32;-0.40;99.90
57444;DHT22;43289;52.962;6.196;2023-02-15T01:34:58;-0.40;99.90
57444;DHT22;43289;52.962;6.196;2023-02-15T01:37:24;-0.40;99.90
57444;DHT22;43289;52.962;6.196;2023-02-15T01:39:50;-0.40;99.90
57444;DHT22;43289;52.962;6.196;2023-02-15T01:42:21;-0.40;99.90
57444;DHT22;43289;52.962;6.196;2023-02-15T01:44:56;-0.40;99.90
57444;DHT22;43289;52.962;6.196;2023-02-15T01:47:40;-0.40;99.90
57444;DHT22;43289;52.962;6.196;2023-02-15T01:50:13;-0.30;99.90
57444;DHT22;43289;52.962;6.196;2023-02-15T01:52:46;-0.30;99.90
57444;DHT22;43289;52.962;6.196;2023-02-15T01:55:13;-0.30;99.90
57444;DHT22;43289;52.962;6.196;2023-02-15T01:57:46;-0.40;99.90
57444;DHT22;43289;52.962;6.196;2023-02-15T02:00:13;-0.40;99.90
57444;DHT22;43289;52.962;6.196;2023-02-15T02:02:43;-0.40;99.90
57444;DHT22;43289;52.962;6.196;2023-02-15T02:05:10;-0.40;99.90
57444;DHT22;43289;52.962;6.196;2023-02-15T02:07:39;-0.40;99.90
57444;DHT22;43289;52.962;6.196;2023-02-15T02:45:08;-0.80;99.90
57444;DHT22;43289;52.962;6.196;2023-02-15T04:46:34;-0.80;99.90
57444;DHT22;43289;52.962;6.196;2023-02-15T04:48:59;-0.90;99.90
57444;DHT22;43289;52.962;6.196;2023-02-15T04:51:25;-1.00;99.90
57444;DHT22;43289;52.962;6.196;2023-02-15T04:53:51;-1.00;99.90
57444;DHT22;43289;52.962;6.196;2023-02-15T04:56:20;-0.90;99.90
57444;DHT22;43289;52.962;6.196;2023-02-15T04:58:46;-0.90;99.90
57444;DHT22;43289;52.962;6.196;2023-02-15T05:01:12;-0.90;99.90
57444;DHT22;43289;52.962;6.196;2023-02-15T05:03:39;-0.90;99.90
57444;DHT22;43289;52.962;6.196;2023-02-15T08:15:48;-0.90;99.90
57444;DHT22;43289;52.962;6.196;2023-02-15T08:18:13;0.90;99.90
57444;DHT22;43289;52.962;6.196;2023-02-15T08:20:39;1.00;99.90
57444;DHT22;43289;52.962;6.196;2023-02-15T08:23:05;1.00;99.90
57444;DHT22;43289;52.962;6.196;2023-02-15T08:25:30;1.10;99.90
57444;DHT22;43289;52.962;6.196;2023-02-15T08:27:56;1.20;99.90
57444;DHT22;43289;52.962;6.196;2023-02-15T08:30:22;1.30;99.90
57444;DHT22;43289;52.962;6.196;2023-02-15T08:32:48;1.20;99.90
57444;DHT22;43289;52.962;6.196;2023-02-15T08:35:13;1.40;99.90
57444;DHT22;43289;52.962;6.196;2023-02-15T08:37:39;1.40;99.90
57444;DHT22;43289;52.962;6.196;2023-02-15T08:40:05;1.50;99.90
57444;DHT22;43289;52.962;6.196;2023-02-15T08:42:33;1.60;99.90
57444;DHT22;43289;52.962;6.196;2023-02-15T08:44:58;1.70;99.90
57444;DHT22;43289;52.962;6.196;2023-02-15T08:47:24;1.80;99.90
57444;DHT22;43289;52.962;6.196;2023-02-15T08:49:49;1.90;99.90
57444;DHT22;43289;52.962;6.196;2023-02-15T08:52:17;2.00;99.90
57444;DHT22;43289;52.962;6.196;2023-02-15T08:54:43;2.00;99.90
57444;DHT22;43289;52.962;6.196;2023-02-15T08:57:08;2.10;99.90
57444;DHT22;43289;52.962;6.196;2023-02-15T08:59:35;2.20;99.90
57444;DHT22;43289;52.962;6.196;2023-02-15T09:02:01;2.30;99.90
57444;DHT22;43289;52.962;6.196;2023-02-15T09:04:28;2.40;99.90
57444;DHT22;43289;52.962;6.196;2023-02-15T09:06:53;2.50;99.90
57444;DHT22;43289;52.962;6.196;2023-02-15T09:09:20;2.60;99.90
57444;DHT22;43289;52.962;6.196;2023-02-15T09:11:49;2.70;99.90
57444;DHT22;43289;52.962;6.196;2023-02-15T09:14:17;2.90;99.90
57444;DHT22;43289;52.962;6.196;2023-02-15T09:16:45;3.00;99.90
57444;DHT22;43289;52.962;6.196;2023-02-15T09:44:32;3.10;99.90
57444;DHT22;43289;52.962;6.196;2023-02-15T10:00:37;6.00;99.90
57444;DHT22;43289;52.962;6.196;2023-02-15T10:11:46;6.90;99.90
57444;DHT22;43289;52.962;6.196;2023-02-15T10:25:38;7.10;99.90
57444;DHT22;43289;52.962;6.196;2023-02-15T10:28:07;7.30;99.90
57444;DHT22;43289;52.962;6.196;2023-02-15T10:30:47;7.50;99.90
57444;DHT22;43289;52.962;6.196;2023-02-15T10:36:16;8.00;99.90
57444;DHT22;43289;52.962;6.196;2023-02-15T10:44:46;8.20;99.90
57444;DHT22;43289;52.962;6.196;2023-02-15T10:55:26;8.50;99.90
57444;DHT22;43289;52.962;6.196;2023-02-15T11:34:29;8.70;99.90
57444;DHT22;43289;52.962;6.196;2023-02-15T11:37:00;10.70;99.90
57444;DHT22;43289;52.962;6.196;2023-02-15T11:39:28;10.60;99.90
57444;DHT22;43289;52.962;6.196;2023-02-15T11:47:00;10.80;99.90
57444;DHT22;43289;52.962;6.196;2023-02-15T11:49:34;11.50;99.90
57444;DHT22;43289;52.962;6.196;2023-02-15T11:52:11;11.60;99.90
57444;DHT22;43289;52.962;6.196;2023-02-15T11:54:45;11.60;99.90
57444;DHT22;43289;52.962;6.196;2023-02-15T12:00:10;11.30;99.90
57444;DHT22;43289;52.962;6.196;2023-02-15T12:02:45;11.30;99.90
57444;DHT22;43289;52.962;6.196;2023-02-15T12:05:16;11.20;99.90
57444;DHT22;43289;52.962;6.196;2023-02-15T12:07:54;11.10;99.90
57444;DHT22;43289;52.962;6.196;2023-02-15T12:10:25;11.00;99.90
57444;DHT22;43289;52.962;6.196;2023-02-15T12:13:15;11.00;99.90
57444;DHT22;43289;52.962;6.196;2023-02-15T12:15:46;10.90;99.90
57444;DHT22;43289;52.962;6.196;2023-02-15T12:18:38;10.90;99.90
57444;DHT22;43289;52.962;6.196;2023-02-15T12:21:16;10.80;99.90
57444;DHT22;43289;52.962;6.196;2023-02-15T12:23:51;10.90;99.90
57444;DHT22;43289;52.962;6.196;2023-02-15T12:26:45;10.90;99.90
57444;DHT22;43289;52.962;6.196;2023-02-15T12:29:24;10.90;99.90
57444;DHT22;43289;52.962;6.196;2023-02-15T12:31:51;10.90;99.90
57444;DHT22;43289;52.962;6.196;2023-02-15T12:34:30;10.80;99.90
57444;DHT22;43289;52.962;6.196;2023-02-15T12:37:01;10.80;99.90
57444;DHT22;43289;52.962;6.196;2023-02-15T12:39:33;10.70;99.90
57444;DHT22;43289;52.962;6.196;2023-02-15T12:42:16;10.60;99.90
57444;DHT22;43289;52.962;6.196;2023-02-15T12:45:00;10.50;99.90
57444;DHT22;43289;52.962;6.196;2023-02-15T12:47:27;10.50;99.90
57444;DHT22;43289;52.962;6.196;2023-02-15T12:50:22;10.50;99.90
57444;DHT22;43289;52.962;6.196;2023-02-15T12:52:50;10.50;99.90
57444;DHT22;43289;52.962;6.196;2023-02-15T12:55:26;10.40;99.90
57444;DHT22;43289;52.962;6.196;2023-02-15T13:00:32;10.50;99.90
57444;DHT22;43289;52.962;6.196;2023-02-15T13:02:59;10.50;99.90
57444;DHT22;43289;52.962;6.196;2023-02-15T13:05:31;10.60;99.90
57444;DHT22;43289;52.962;6.196;2023-02-15T13:08:18;10.60;99.90
57444;DHT22;43289;52.962;6.196;2023-02-15T13:13:22;10.80;99.90
57444;DHT22;43289;52.962;6.196;2023-02-15T13:15:54;10.80;99.90
57444;DHT22;43289;52.962;6.196;2023-02-15T13:18:30;10.90;99.90
57444;DHT22;43289;52.962;6.196;2023-02-15T13:21:09;10.90;99.90
57444;DHT22;43289;52.962;6.196;2023-02-15T13:23:36;10.90;99.90
57444;DHT22;43289;52.962;6.196;2023-02-15T13:26:04;11.00;99.90
57444;DHT22;43289;52.962;6.196;2023-02-15T13:28:44;11.00;99.90
57444;DHT22;43289;52.962;6.196;2023-02-15T13:31:17;11.00;99.90
57444;DHT22;43289;52.962;6.196;2023-02-15T13:33:53;11.00;99.90
57444;DHT22;43289;52.962;6.196;2023-02-15T13:36:30;11.00;99.90
57444;DHT22;43289;52.962;6.196;2023-02-15T13:39:11;11.00;99.90
57444;DHT22;43289;52.962;6.196;2023-02-15T13:42:01;10.90;99.90
57444;DHT22;43289;52.962;6.196;2023-02-15T13:44:50;11.00;99.90
57444;DHT22;43289;52.962;6.196;2023-02-15T13:47:34;11.10;99.90
57444;DHT22;43289;52.962;6.196;2023-02-15T13:56:02;11.20;99.90
57444;DHT22;43289;52.962;6.196;2023-02-15T14:01:38;11.20;99.90
57444;DHT22;43289;52.962;6.196;2023-02-15T14:10:14;11.10;99.90
57444;DHT22;43289;52.962;6.196;2023-02-15T14:13:24;11.10;99.90
57444;DHT22;43289;52.962;6.196;2023-02-15T14:18:47;11.10;99.90
57444;DHT22;43289;52.962;6.196;2023-02-15T14:21:26;11.00;99.90
57444;DHT22;43289;52.962;6.196;2023-02-15T14:24:21;11.00;99.90
57444;DHT22;43289;52.962;6.196;2023-02-15T14:26:59;11.10;99.90
57444;DHT22;43289;52.962;6.196;2023-02-15T14:32:37;11.00;99.90
57444;DHT22;43289;52.962;6.196;2023-02-15T14:35:13;11.00;99.90
57444;DHT22;43289;52.962;6.196;2023-02-15T14:40:56;11.00;99.90
57444;DHT22;43289;52.962;6.196;2023-02-15T14:49:15;10.90;99.90
57444;DHT22;43289;52.962;6.196;2023-02-15T14:59:55;10.80;99.90
57444;DHT22;43289;52.962;6.196;2023-02-15T15:02:43;10.70;99.90
57444;DHT22;43289;52.962;6.196;2023-02-15T15:05:34;10.70;99.90
57444;DHT22;43289;52.962;6.196;2023-02-15T15:21:07;10.60;99.90
57444;DHT22;43289;52.962;6.196;2023-02-15T15:23:45;10.30;99.90
57444;DHT22;43289;52.962;6.196;2023-02-15T15:26:26;10.30;99.90
57444;DHT22;43289;52.962;6.196;2023-02-15T15:31:40;10.20;99.90
57444;DHT22;43289;52.962;6.196;2023-02-15T15:34:27;10.10;99.90
57444;DHT22;43289;52.962;6.196;2023-02-15T15:40:25;10.00;99.90
57444;DHT22;43289;52.962;6.196;2023-02-15T15:45:53;9.90;99.90
57444;DHT22;43289;52.962;6.196;2023-02-15T15:48:40;9.80;99.90
57444;DHT22;43289;52.962;6.196;2023-02-15T15:51:17;9.80;99.90
57444;DHT22;43289;52.962;6.196;2023-02-15T15:53:48;9.70;99.90
57444;DHT22;43289;52.962;6.196;2023-02-15T15:56:36;9.70;99.90
57444;DHT22;43289;52.962;6.196;2023-02-15T15:59:07;9.60;99.90
57444;DHT22;43289;52.962;6.196;2023-02-15T16:01:42;9.60;99.90
57444;DHT22;43289;52.962;6.196;2023-02-15T16:04:24;9.50;99.90
57444;DHT22;43289;52.962;6.196;2023-02-15T16:06:50;9.50;99.90
57444;DHT22;43289;52.962;6.196;2023-02-15T16:09:22;9.40;99.90
57444;DHT22;43289;52.962;6.196;2023-02-15T16:11:53;9.40;99.90
57444;DHT22;43289;52.962;6.196;2023-02-15T16:14:35;9.40;99.90
57444;DHT22;43289;52.962;6.196;2023-02-15T16:17:05;9.30;99.90
57444;DHT22;43289;52.962;6.196;2023-02-15T16:19:34;9.20;99.90
57444;DHT22;43289;52.962;6.196;2023-02-15T16:22:02;9.10;99.90
57444;DHT22;43289;52.962;6.196;2023-02-15T16:27:37;8.80;99.90
57444;DHT22;43289;52.962;6.196;2023-02-15T16:32:53;8.60;99.90
57444;DHT22;43289;52.962;6.196;2023-02-15T16:35:21;8.60;99.90
57444;DHT22;43289;52.962;6.196;2023-02-15T16:37:47;8.50;99.90
57444;DHT22;43289;52.962;6.196;2023-02-15T16:40:33;8.50;99.90
57444;DHT22;43289;52.962;6.196;2023-02-15T16:43:03;8.50;99.90
57444;DHT22;43289;52.962;6.196;2023-02-15T16:45:31;8.40;99.90
57444;DHT22;43289;52.962;6.196;2023-02-15T16:48:00;8.50;99.90
57444;DHT22;43289;52.962;6.196;2023-02-15T16:50:33;8.40;99.90
57444;DHT22;43289;52.962;6.196;2023-02-15T16:53:00;8.40;99.90
57444;DHT22;43289;52.962;6.196;2023-02-15T16:55:28;8.40;99.90
57444;DHT22;43289;52.962;6.196;2023-02-15T16:58:00;8.30;99.90
57444;DHT22;43289;52.962;6.196;2023-02-15T17:00:31;8.30;99.90
57444;DHT22;43289;52.962;6.196;2023-02-15T17:03:03;8.30;99.90
57444;DHT22;43289;52.962;6.196;2023-02-15T17:05:40;8.20;99.90
57444;DHT22;43289;52.962;6.196;2023-02-15T17:08:17;8.10;99.90
57444;DHT22;43289;52.962;6.196;2023-02-15T17:11:13;8.10;99.90
57444;DHT22;43289;52.962;6.196;2023-02-15T17:16:52;7.90;99.90
57444;DHT22;43289;52.962;6.196;2023-02-15T17:19:27;7.90;99.90
57444;DHT22;43289;52.962;6.196;2023-02-15T17:22:06;7.90;99.90
57444;DHT22;43289;52.962;6.196;2023-02-15T17:27:00;7.80;99.90
57444;DHT22;43289;52.962;6.196;2023-02-15T17:29:38;7.80;99.90
57444;DHT22;43289;52.962;6.196;2023-02-15T17:32:14;7.80;99.90
57444;DHT22;43289;52.962;6.196;2023-02-15T17:34:48;7.80;99.90
57444;DHT22;43289;52.962;6.196;2023-02-15T17:40:27;7.70;99.90
57444;DHT22;43289;52.962;6.196;2023-02-15T17:42:53;7.60;99.90
57444;DHT22;43289;52.962;6.196;2023-02-15T17:45:20;7.60;99.90
57444;DHT22;43289;52.962;6.196;2023-02-15T17:47:47;7.60;99.90
57444;DHT22;43289;52.962;6.196;2023-02-15T17:50:20;7.50;99.90
57444;DHT22;43289;52.962;6.196;2023-02-15T17:52:47;7.50;99.90
57444;DHT22;43289;52.962;6.196;2023-02-15T17:55:14;7.30;99.90
57444;DHT22;43289;52.962;6.196;2023-02-15T17:57:59;7.30;99.90
57444;DHT22;43289;52.962;6.196;2023-02-15T18:00:25;7.20;99.90
57444;DHT22;43289;52.962;6.196;2023-02-15T18:03:10;7.20;99.90
57444;DHT22;43289;52.962;6.196;2023-02-15T18:05:55;7.10;99.90
57444;DHT22;43289;52.962;6.196;2023-02-15T18:08:40;7.10;99.90
57444;DHT22;43289;52.962;6.196;2023-02-15T18:11:24;7.10;99.90
57444;DHT22;43289;52.962;6.196;2023-02-15T18:14:06;7.00;99.90
57444;DHT22;43289;52.962;6.196;2023-02-15T18:16:40;6.90;99.90
57444;DHT22;43289;52.962;6.196;2023-02-15T18:19:24;6.80;99.90
57444;DHT22;43289;52.962;6.196;2023-02-15T18:21:50;6.70;99.90
57444;DHT22;43289;52.962;6.196;2023-02-15T18:24:24;6.70;99.90
57444;DHT22;43289;52.962;6.196;2023-02-15T18:26:50;6.60;99.90
57444;DHT22;43289;52.962;6.196;2023-02-15T18:29:16;6.70;99.90
57444;DHT22;43289;52.962;6.196;2023-02-15T18:31:43;6.60;99.90
57444;DHT22;43289;52.962;6.196;2023-02-15T18:34:33;6.60;99.90
57444;DHT22;43289;52.962;6.196;2023-02-15T18:37:03;6.60;99.90
57444;DHT22;43289;52.962;6.196;2023-02-15T18:39:47;6.60;99.90
57444;DHT22;43289;52.962;6.196;2023-02-15T18:42:24;6.70;99.90
57444;DHT22;43289;52.962;6.196;2023-02-15T18:45:21;6.70;99.90
57444;DHT22;43289;52.962;6.196;2023-02-15T18:47:48;6.80;99.90
57444;DHT22;43289;52.962;6.196;2023-02-15T18:50:16;6.70;99.90
57444;DHT22;43289;52.962;6.196;2023-02-15T18:52:44;6.70;99.90
57444;DHT22;43289;52.962;6.196;2023-02-15T18:55:19;6.70;99.90
57444;DHT22;43289;52.962;6.196;2023-02-15T18:57:46;6.80;99.90
57444;DHT22;43289;52.962;6.196;2023-02-15T19:00:21;6.80;99.90
57444;DHT22;43289;52.962;6.196;2023-02-15T19:02:47;6.80;99.90
57444;DHT22;43289;52.962;6.196;2023-02-15T19:05:14;6.80;99.90
57444;DHT22;43289;52.962;6.196;2023-02-15T19:07:43;6.80;99.90
57444;DHT22;43289;52.962;6.196;2023-02-15T19:10:15;6.80;99.90
57444;DHT22;43289;52.962;6.196;2023-02-15T19:12:43;6.80;99.90
57444;DHT22;43289;52.962;6.196;2023-02-15T19:15:23;6.70;99.90
57444;DHT22;43289;52.962;6.196;2023-02-15T19:17:50;6.70;99.90
57444;DHT22;43289;52.962;6.196;2023-02-15T19:20:25;6.70;99.90
57444;DHT22;43289;52.962;6.196;2023-02-15T19:22:52;6.70;99.90
57444;DHT22;43289;52.962;6.196;2023-02-15T19:25:25;6.70;99.90
57444;DHT22;43289;52.962;6.196;2023-02-15T19:27:52;6.60;99.90
57444;DHT22;43289;52.962;6.196;2023-02-15T19:30:22;6.60;99.90
57444;DHT22;43289;52.962;6.196;2023-02-15T19:32:48;6.60;99.90
57444;DHT22;43289;52.962;6.196;2023-02-15T19:35:20;6.60;99.90
57444;DHT22;43289;52.962;6.196;2023-02-15T19:37:55;6.60;99.90
57444;DHT22;43289;52.962;6.196;2023-02-15T19:40:22;6.60;99.90
57444;DHT22;43289;52.962;6.196;2023-02-15T19:42:49;6.50;99.90
57444;DHT22;43289;52.962;6.196;2023-02-15T19:45:20;6.50;99.90
57444;DHT22;43289;52.962;6.196;2023-02-15T19:47:46;6.50;99.90
57444;DHT22;43289;52.962;6.196;2023-02-15T19:50:18;6.50;99.90
57444;DHT22;43289;52.962;6.196;2023-02-15T19:52:44;6.50;99.90
57444;DHT22;43289;52.962;6.196;2023-02-15T19:55:27;6.50;99.90
57444;DHT22;43289;52.962;6.196;2023-02-15T19:57:55;6.50;99.90
57444;DHT22;43289;52.962;6.196;2023-02-15T20:00:32;6.50;99.90
57444;DHT22;43289;52.962;6.196;2023-02-15T20:02:58;6.50;99.90
57444;DHT22;43289;52.962;6.196;2023-02-15T20:05:26;6.60;99.90
57444;DHT22;43289;52.962;6.196;2023-02-15T20:07:53;6.60;99.90
57444;DHT22;43289;52.962;6.196;2023-02-15T20:10:29;6.60;99.90
57444;DHT22;43289;52.962;6.196;2023-02-15T20:12:55;6.60;99.90
57444;DHT22;43289;52.962;6.196;2023-02-15T20:15:27;6.70;99.90
57444;DHT22;43289;52.962;6.196;2023-02-15T20:17:53;6.70;99.90
57444;DHT22;43289;52.962;6.196;2023-02-15T20:20:26;6.70;99.90
57444;DHT22;43289;52.962;6.196;2023-02-15T20:22:54;6.70;99.90
57444;DHT22;43289;52.962;6.196;2023-02-15T20:25:26;6.70;99.90
57444;DHT22;43289;52.962;6.196;2023-02-15T20:27:52;6.80;99.90
57444;DHT22;43289;52.962;6.196;2023-02-15T20:30:24;6.80;99.90
57444;DHT22;43289;52.962;6.196;2023-02-15T20:32:50;6.90;99.90
57444;DHT22;43289;52.962;6.196;2023-02-15T20:35:18;6.80;99.90
57444;DHT22;43289;52.962;6.196;2023-02-15T20:37:45;6.80;99.90
57444;DHT22;43289;52.962;6.196;2023-02-15T20:40:17;6.80;99.90
57444;DHT22;43289;52.962;6.196;2023-02-15T20:42:43;6.80;99.90
57444;DHT22;43289;52.962;6.196;2023-02-15T20:47:46;6.80;99.90
57444;DHT22;43289;52.962;6.196;2023-02-15T20:50:21;6.70;99.90
57444;DHT22;43289;52.962;6.196;2023-02-15T20:52:49;6.70;99.90
57444;DHT22;43289;52.962;6.196;2023-02-15T20:55:17;6.70;99.90
57444;DHT22;43289;52.962;6.196;2023-02-15T20:57:43;6.70;99.90
57444;DHT22;43289;52.962;6.196;2023-02-15T21:00:13;6.70;99.90
57444;DHT22;43289;52.962;6.196;2023-02-15T21:02:40;6.70;99.90
57444;DHT22;43289;52.962;6.196;2023-02-15T21:05:27;6.60;99.90
57444;DHT22;43289;52.962;6.196;2023-02-15T21:07:54;6.70;99.90
57444;DHT22;43289;52.962;6.196;2023-02-15T21:10:23;6.70;99.90
57444;DHT22;43289;52.962;6.196;2023-02-15T21:12:50;6.70;99.90
57444;DHT22;43289;52.962;6.196;2023-02-15T21:15:33;6.70;99.90
57444;DHT22;43289;52.962;6.196;2023-02-15T21:18:01;6.60;99.90
57444;DHT22;43289;52.962;6.196;2023-02-15T21:20:29;6.60;99.90
57444;DHT22;43289;52.962;6.196;2023-02-15T21:22:56;6.60;99.90
57444;DHT22;43289;52.962;6.196;2023-02-15T21:25:33;6.60;99.90
57444;DHT22;43289;52.962;6.196;2023-02-15T21:27:59;6.50;99.90
57444;DHT22;43289;52.962;6.196;2023-02-15T21:30:25;6.50;99.90
57444;DHT22;43289;52.962;6.196;2023-02-15T21:32:51;6.50;99.90
57444;DHT22;43289;52.962;6.196;2023-02-15T21:35:18;6.40;99.90
57444;DHT22;43289;52.962;6.196;2023-02-15T21:37:45;6.40;99.90
57444;DHT22;43289;52.962;6.196;2023-02-15T21:40:24;6.40;99.90
57444;DHT22;43289;52.962;6.196;2023-02-15T21:42:51;6.40;99.90
57444;DHT22;43289;52.962;6.196;2023-02-15T21:45:36;6.30;99.90
57444;DHT22;43289;52.962;6.196;2023-02-15T21:48:20;6.30;99.90
57444;DHT22;43289;52.962;6.196;2023-02-15T21:50:50;6.30;99.90
57444;DHT22;43289;52.962;6.196;2023-02-15T21:53:40;6.30;99.90
57444;DHT22;43289;52.962;6.196;2023-02-15T21:56:13;6.30;99.90
57444;DHT22;43289;52.962;6.196;2023-02-15T21:58:39;6.30;99.90
57444;DHT22;43289;52.962;6.196;2023-02-15T22:01:06;6.30;99.90
57444;DHT22;43289;52.962;6.196;2023-02-15T22:03:36;6.20;99.90
57444;DHT22;43289;52.962;6.196;2023-02-15T22:06:03;6.20;99.90
57444;DHT22;43289;52.962;6.196;2023-02-15T22:08:30;6.20;99.90
57444;DHT22;43289;52.962;6.196;2023-02-15T22:10:56;6.20;99.90
57444;DHT22;43289;52.962;6.196;2023-02-15T22:13:30;6.20;99.90
57444;DHT22;43289;52.962;6.196;2023-02-15T22:15:56;6.20;99.90
57444;DHT22;43289;52.962;6.196;2023-02-15T22:18:28;6.10;99.90
57444;DHT22;43289;52.962;6.196;2023-02-15T22:20:54;6.10;99.90
57444;DHT22;43289;52.962;6.196;2023-02-15T22:23:22;6.00;99.90
57444;DHT22;43289;52.962;6.196;2023-02-15T22:26:19;6.00;99.90
57444;DHT22;43289;52.962;6.196;2023-02-15T22:28:42;6.00;99.90
57444;DHT22;43289;52.962;6.196;2023-02-15T22:31:16;5.90;99.90
57444;DHT22;43289;52.962;6.196;2023-02-15T22:33:43;5.90;99.90
57444;DHT22;43289;52.962;6.196;2023-02-15T22:36:29;5.80;99.90
57444;DHT22;43289;52.962;6.196;2023-02-15T22:38:55;5.80;99.90
57444;DHT22;43289;52.962;6.196;2023-02-15T22:41:27;5.80;99.90
57444;DHT22;43289;52.962;6.196;2023-02-15T22:43:53;5.80;99.90
57444;DHT22;43289;52.962;6.196;2023-02-15T22:46:22;5.80;99.90
57444;DHT22;43289;52.962;6.196;2023-02-15T22:48:48;5.80;99.90
57444;DHT22;43289;52.962;6.196;2023-02-15T22:51:20;5.80;99.90
57444;DHT22;43289;52.962;6.196;2023-02-15T22:53:46;5.90;99.90
57444;DHT22;43289;52.962;6.196;2023-02-15T22:56:20;5.90;99.90
57444;DHT22;43289;52.962;6.196;2023-02-15T22:58:47;5.90;99.90
57444;DHT22;43289;52.962;6.196;2023-02-15T23:01:29;5.90;99.90
57444;DHT22;43289;52.962;6.196;2023-02-15T23:03:55;5.90;99.90
57444;DHT22;43289;52.962;6.196;2023-02-15T23:06:21;5.90;99.90
57444;DHT22;43289;52.962;6.196;2023-02-15T23:08:46;5.90;99.90
57444;DHT22;43289;52.962;6.196;2023-02-15T23:11:12;5.90;99.90
57444;DHT22;43289;52.962;6.196;2023-02-15T23:13:38;5.90;99.90
57444;DHT22;43289;52.962;6.196;2023-02-15T23:16:05;5.90;99.90
57444;DHT22;43289;52.962;6.196;2023-02-15T23:18:34;5.90;99.90
57444;DHT22;43289;52.962;6.196;2023-02-15T23:21:19;5.90;99.90
57444;DHT22;43289;52.962;6.196;2023-02-15T23:23:51;5.90;99.90
57444;DHT22;43289;52.962;6.196;2023-02-15T23:26:20;5.90;99.90
57444;DHT22;43289;52.962;6.196;2023-02-15T23:28:47;5.90;99.90
57444;DHT22;43289;52.962;6.196;2023-02-15T23:31:27;5.80;99.90
57444;DHT22;43289;52.962;6.196;2023-02-15T23:33:53;5.80;99.90
57444;DHT22;43289;52.962;6.196;2023-02-15T23:41:21;5.80;99.90
57444;DHT22;43289;52.962;6.196;2023-02-15T23:43:59;5.70;99.90
57444;DHT22;43289;52.962;6.196;2023-02-15T23:46:44;5.70;99.90
57444;DHT22;43289;52.962;6.196;2023-02-15T23:49:15;5.70;99.90
57444;DHT22;43289;52.962;6.196;2023-02-15T23:51:47;5.80;99.90
57444;DHT22;43289;52.962;6.196;2023-02-15T23:54:13;5.80;99.90
57444;DHT22;43289;52.962;6.196;2023-02-15T23:56:40;5.80;99.90
57444;DHT22;43289;52.962;6.196;2023-02-15T23:59:06;5.80;99.90
